Time;durP1;ratioP1;P1;durP2;ratioP2;P2;SDS_P1;SDS_P2;PMS_P1;PMS_P2;Temp;Humidity;BMP_temperature;BMP_pressure;BME280_temperature;BME280_humidity;BME280_pressure;Samples;Min_cycle;Max_cycle;Signal;HPM_P1;HPM_P2
2022/04/14 00:04:03;;;;;;;23.97;10.27;;;7.20;79.60;;;;;;10371394;28;20029;-79
2022/04/14 00:09:03;;;;;;;23.60;11.20;;;7.10;79.50;;;;;;10371550;28;20046;-79
2022/04/14 00:14:05;;;;;;;26.70;11.17;;;7.00;79.80;;;;;;10370908;28;20097;-80
2022/04/14 00:19:05;;;;;;;24.23;10.60;;;6.90;79.90;;;;;;10370531;28;20117;-79
2022/04/14 00:24:06;;;;;;;27.27;11.50;;;6.80;79.90;;;;;;10371236;28;20541;-79
2022/04/14 00:29:07;;;;;;;29.47;13.50;;;6.60;79.30;;;;;;10352326;28;20512;-79
2022/04/14 00:34:07;;;;;;;31.97;12.33;;;6.70;79.40;;;;;;10369275;28;20037;-80
2022/04/14 00:39:09;;;;;;;40.40;16.00;;;6.70;80.10;;;;;;10369489;28;20500;-80
2022/04/14 00:44:10;;;;;;;54.97;20.10;;;6.70;80.00;;;;;;10369931;28;20109;-81
2022/04/14 00:49:12;;;;;;;30.67;12.53;;;6.60;80.70;;;;;;10370733;28;20045;-80
2022/04/14 00:54:12;;;;;;;27.90;11.80;;;6.60;80.30;;;;;;10368786;28;20065;-79
2022/04/14 00:59:13;;;;;;;29.40;11.97;;;6.60;80.10;;;;;;10369391;28;20052;-79
2022/04/14 01:04:15;;;;;;;32.80;14.00;;;6.60;79.80;;;;;;10368947;28;20030;-80
2022/04/14 01:09:18;;;;;;;33.70;14.23;;;6.60;79.90;;;;;;10369077;28;20042;-80
2022/04/14 01:14:21;;;;;;;35.90;14.37;;;6.60;80.20;;;;;;10369045;28;20034;-80
2022/04/14 01:19:22;;;;;;;38.00;14.90;;;6.50;79.80;;;;;;10368522;28;20474;-79
2022/04/14 01:24:22;;;;;;;39.20;15.67;;;6.50;80.10;;;;;;10368164;28;20056;-80
2022/04/14 01:29:24;;;;;;;40.83;16.37;;;6.50;80.00;;;;;;10366126;28;20037;-80
2022/04/14 01:34:25;;;;;;;34.93;14.97;;;6.40;80.60;;;;;;10367774;28;20037;-79
2022/04/14 01:39:27;;;;;;;37.20;14.70;;;6.30;80.90;;;;;;10347078;28;20029;-80
2022/04/14 01:44:28;;;;;;;29.60;12.00;;;6.20;80.70;;;;;;10367612;28;20037;-79
2022/04/14 01:49:28;;;;;;;30.43;11.77;;;6.10;81.50;;;;;;10366662;28;20056;-80
2022/04/14 01:54:29;;;;;;;22.80;10.40;;;6.10;81.60;;;;;;10367308;28;20065;-79
2022/04/14 01:59:30;;;;;;;25.40;10.93;;;6.00;81.70;;;;;;10367282;28;20646;-79
2022/04/14 02:04:30;;;;;;;21.40;10.03;;;5.90;82.00;;;;;;10365590;28;20496;-79
2022/04/14 02:09:31;;;;;;;21.67;8.63;;;6.00;81.80;;;;;;10367609;28;20030;-79
2022/04/14 02:14:32;;;;;;;16.73;7.57;;;5.90;81.60;;;;;;10367210;28;20030;-80
2022/04/14 02:19:32;;;;;;;14.00;7.27;;;5.90;81.90;;;;;;10366718;28;20040;-79
2022/04/14 02:24:33;;;;;;;20.87;7.43;;;5.90;81.60;;;;;;10366835;28;20490;-80
2022/04/14 02:29:34;;;;;;;16.30;7.27;;;5.90;81.80;;;;;;10367330;28;20065;-79
2022/04/14 02:34:34;;;;;;;17.33;7.93;;;5.80;82.50;;;;;;10366405;28;20120;-79
2022/04/14 02:39:35;;;;;;;16.47;7.60;;;5.70;83.80;;;;;;10366615;28;20436;-79
2022/04/14 02:44:35;;;;;;;16.10;7.67;;;5.70;83.00;;;;;;10366762;28;20038;-81
2022/04/14 02:49:36;;;;;;;19.40;8.53;;;5.80;82.70;;;;;;10366461;28;20030;-79
2022/04/14 02:54:40;;;;;;;18.87;9.00;;;5.60;83.00;;;;;;10366665;28;20116;-78
2022/04/14 02:59:40;;;;;;;19.87;8.93;;;5.60;83.20;;;;;;10366959;28;20477;-81
2022/04/14 03:04:41;;;;;;;22.97;10.37;;;5.60;82.90;;;;;;10378220;28;20037;-81
2022/04/14 03:09:42;;;;;;;27.50;13.00;;;5.50;83.00;;;;;;10373270;28;20068;-80
2022/04/14 03:14:43;;;;;;;29.13;12.73;;;5.40;83.10;;;;;;10372964;28;20036;-79
2022/04/14 03:19:44;;;;;;;24.10;11.90;;;5.40;83.30;;;;;;10372737;28;20018;-80
2022/04/14 03:24:44;;;;;;;19.23;9.40;;;5.40;83.60;;;;;;10373920;28;20030;-79
2022/04/14 03:29:45;;;;;;;19.00;9.13;;;5.40;83.40;;;;;;10373235;28;20030;-80
2022/04/14 03:34:46;;;;;;;24.13;10.83;;;5.30;83.30;;;;;;10372533;28;20089;-80
2022/04/14 03:39:47;;;;;;;25.53;12.30;;;5.30;83.50;;;;;;10373259;28;20033;-79
2022/04/14 03:44:47;;;;;;;16.53;8.43;;;5.30;83.40;;;;;;10372438;28;20072;-79
2022/04/14 03:49:49;;;;;;;32.90;13.77;;;5.30;83.70;;;;;;10353826;28;20101;-80
2022/04/14 03:54:50;;;;;;;35.47;16.03;;;5.40;83.60;;;;;;10366613;28;20052;-81
2022/04/14 03:59:50;;;;;;;85.87;45.07;;;5.30;84.10;;;;;;10373865;28;20036;-79
2022/04/14 04:04:51;;;;;;;100.37;54.03;;;5.30;84.00;;;;;;10371082;28;20073;-81
2022/04/14 04:09:51;;;;;;;57.57;28.90;;;5.30;84.20;;;;;;10370342;28;20659;-79
2022/04/14 04:14:52;;;;;;;65.73;30.47;;;5.30;84.40;;;;;;10371528;28;20026;-82
2022/04/14 04:19:53;;;;;;;102.97;51.03;;;5.30;84.60;;;;;;10370516;28;20034;-79
2022/04/14 04:24:54;;;;;;;95.10;47.80;;;5.30;84.40;;;;;;10370127;28;20045;-80
2022/04/14 04:29:54;;;;;;;51.23;26.80;;;5.40;84.70;;;;;;10370747;28;20048;-79
2022/04/14 04:34:55;;;;;;;56.47;25.37;;;5.40;84.90;;;;;;10370558;28;20030;-81
2022/04/14 04:39:56;;;;;;;70.03;30.27;;;5.40;84.70;;;;;;10354373;28;20049;-80
2022/04/14 04:44:56;;;;;;;64.93;28.63;;;5.50;84.90;;;;;;10330336;28;20030;-80
2022/04/14 04:49:58;;;;;;;60.10;25.80;;;5.70;84.60;;;;;;10330405;28;20026;-80
2022/04/14 04:54:59;;;;;;;51.03;22.73;;;5.80;85.10;;;;;;10311633;28;20046;-80
2022/04/14 04:59:59;;;;;;;45.07;19.20;;;5.90;85.20;;;;;;10329960;28;20118;-79
2022/04/14 05:05:00;;;;;;;44.93;16.57;;;6.00;85.00;;;;;;10329267;28;20038;-80
2022/04/14 05:10:01;;;;;;;42.03;17.63;;;6.20;85.10;;;;;;10329184;28;20032;-80
2022/04/14 05:15:01;;;;;;;38.07;16.60;;;6.40;86.20;;;;;;10329376;28;20034;-80
2022/04/14 05:20:02;;;;;;;35.60;18.93;;;6.50;85.70;;;;;;10328986;28;20422;-80
2022/04/14 05:25:03;;;;;;;44.53;20.27;;;6.70;85.60;;;;;;10373861;23;20635;-80
2022/04/14 05:30:04;;;;;;;40.83;19.00;;;6.90;85.90;;;;;;10368699;28;20029;-79
2022/04/14 05:35:09;;;;;;;34.73;16.63;;;7.10;86.20;;;;;;10369754;28;20113;-80
2022/04/14 05:40:10;;;;;;;29.30;13.90;;;7.30;84.50;;;;;;10368857;28;20081;-81
2022/04/14 05:45:10;;;;;;;44.43;30.13;;;7.50;83.10;;;;;;10368884;28;20122;-80
2022/04/14 05:50:12;;;;;;;30.03;15.70;;;7.70;83.30;;;;;;10368702;28;20457;-80
2022/04/14 05:55:13;;;;;;;33.67;16.70;;;7.90;82.90;;;;;;10367786;28;20112;-80
2022/04/14 06:00:14;;;;;;;38.00;16.70;;;8.10;83.30;;;;;;10368133;28;20109;-79
2022/04/14 06:05:14;;;;;;;34.03;15.63;;;8.30;82.40;;;;;;10367525;28;20490;-80
2022/04/14 06:10:15;;;;;;;33.60;16.23;;;8.40;81.40;;;;;;10367883;28;20022;-79
2022/04/14 06:15:17;;;;;;;36.40;17.33;;;8.60;81.70;;;;;;10368139;28;20026;-80
2022/04/14 06:20:17;;;;;;;37.43;19.83;;;8.70;81.60;;;;;;10367673;28;20037;-80
2022/04/14 06:25:22;;;;;;;34.37;15.10;;;8.80;81.20;;;;;;10367928;28;20379;-81
2022/04/14 06:30:23;;;;;;;33.30;16.13;;;9.10;81.50;;;;;;10367608;28;20037;-79
2022/04/14 06:35:24;;;;;;;34.33;16.30;;;9.30;82.70;;;;;;10367986;28;20390;-81
2022/04/14 06:40:25;;;;;;;34.87;16.80;;;9.50;82.90;;;;;;10375638;28;20026;-80
2022/04/14 06:45:26;;;;;;;35.27;16.43;;;9.80;82.60;;;;;;10374912;28;20053;-80
2022/04/14 06:50:27;;;;;;;26.90;15.43;;;10.10;83.30;;;;;;10375122;28;20083;-80
2022/04/14 06:55:28;;;;;;;28.37;14.40;;;10.40;82.50;;;;;;10374603;28;20054;-80
2022/04/14 07:00:29;;;;;;;32.47;15.30;;;10.70;82.60;;;;;;10374957;28;20128;-80
2022/04/14 07:05:30;;;;;;;32.00;15.90;;;10.90;81.70;;;;;;10374288;28;20041;-80
2022/04/14 07:10:30;;;;;;;31.40;16.80;;;11.30;81.10;;;;;;10351872;28;20034;-80
2022/04/14 07:15:31;;;;;;;32.33;14.10;;;11.70;81.40;;;;;;10365148;28;20045;-81
2022/04/14 07:20:31;;;;;;;30.25;15.05;;;12.10;81.60;;;;;;10361851;28;20034;-81
2022/04/14 07:25:35;;;;;;;29.88;14.80;;;12.40;80.90;;;;;;10360547;28;20410;-80
2022/04/14 07:30:39;;;;;;;29.25;15.02;;;12.80;79.90;;;;;;10369968;28;20050;-80
2022/04/14 07:35:40;;;;;;;23.60;12.35;;;13.20;79.30;;;;;;10360858;28;20029;-80
2022/04/14 07:40:40;;;;;;;22.73;13.80;;;13.50;78.30;;;;;;10372843;28;20046;-80
2022/04/14 07:45:42;;;;;;;27.55;13.73;;;13.90;76.60;;;;;;10366672;28;20041;-80
2022/04/14 07:50:43;;;;;;;18.92;11.30;;;14.30;77.20;;;;;;10354761;28;20068;-80
2022/04/14 07:55:43;;;;;;;21.10;11.48;;;14.60;75.80;;;;;;10354997;28;20100;-80
2022/04/14 08:00:46;;;;;;;22.60;12.38;;;15.00;75.10;;;;;;10364596;28;20041;-79
2022/04/14 08:05:48;;;;;;;23.70;11.45;;;15.30;73.50;;;;;;10371306;28;20077;-80
2022/04/14 08:10:49;;;;;;;23.95;12.75;;;15.60;73.60;;;;;;10372064;28;20085;-80
2022/04/14 08:15:51;;;;;;;23.58;13.07;;;16.00;71.80;;;;;;10364699;28;20065;-79
2022/04/14 08:20:52;;;;;;;25.27;13.90;;;16.40;71.90;;;;;;10351031;28;20446;-80
2022/04/14 08:25:52;;;;;;;23.33;14.57;;;16.70;70.90;;;;;;10357330;28;20144;-80
2022/04/14 08:30:54;;;;;;;25.42;13.65;;;17.00;70.60;;;;;;10355198;28;20076;-80
2022/04/14 08:35:55;;;;;;;22.90;14.07;;;17.40;69.80;;;;;;10370082;28;20137;-80
2022/04/14 08:41:04;;;;;;;29.40;13.85;;;17.60;69.80;;;;;;10370080;28;20117;-80
2022/04/14 08:46:06;;;;;;;19.90;12.10;;;17.90;68.80;;;;;;10369915;28;20057;-80
2022/04/14 08:51:08;;;;;;;25.05;12.25;;;18.20;68.60;;;;;;10360580;28;20109;-80
2022/04/14 08:56:10;;;;;;;18.83;10.38;;;18.60;67.40;;;;;;10364949;28;20482;-79
2022/04/14 09:01:14;;;;;;;16.83;9.45;;;18.90;66.50;;;;;;10361240;28;20502;-79
2022/04/14 09:06:15;;;;;;;16.55;9.85;;;19.10;63.50;;;;;;10367195;28;20082;-79
2022/04/14 09:11:18;;;;;;;15.25;8.27;;;19.20;64.00;;;;;;10368023;28;20044;-80
2022/04/14 09:16:20;;;;;;;11.50;8.18;;;19.30;61.90;;;;;;10368872;28;20057;-79
2022/04/14 09:21:20;;;;;;;13.93;8.13;;;19.30;61.70;;;;;;10345842;28;20113;-80
2022/04/14 09:26:24;;;;;;;16.70;7.68;;;19.60;61.40;;;;;;10376362;23;20053;-80
2022/04/14 09:31:25;;;;;;;12.88;7.60;;;19.60;61.60;;;;;;10368120;28;20040;-80
2022/04/14 09:36:27;;;;;;;14.18;8.45;;;19.90;62.30;;;;;;10354959;28;20120;-80
2022/04/14 09:41:30;;;;;;;12.90;8.18;;;20.20;59.60;;;;;;10364453;28;20030;-80
2022/04/14 09:46:32;;;;;;;16.42;7.03;;;20.30;60.90;;;;;;10365287;28;20050;-81
2022/04/14 09:51:33;;;;;;;14.55;8.25;;;20.50;60.90;;;;;;10367922;28;20474;-80
2022/04/14 09:56:40;;;;;;;12.55;6.95;;;20.80;61.70;;;;;;10363815;28;20036;-80
2022/04/14 10:01:41;;;;;;;10.43;6.70;;;21.20;58.50;;;;;;10368135;28;20390;-81
2022/04/14 10:07:03;;;;;;;13.25;7.05;;;21.30;60.30;;;;;;10367255;28;20036;-80
2022/04/14 10:12:05;;;;;;;10.95;6.10;;;21.50;57.90;;;;;;10367662;28;20091;-80
2022/04/14 10:17:07;;;;;;;12.02;6.97;;;21.70;58.50;;;;;;10362515;28;20026;-81
2022/04/14 10:22:08;;;;;;;15.30;8.18;;;21.80;58.60;;;;;;10366950;28;20025;-80
2022/04/14 10:27:10;;;;;;;14.13;7.55;;;21.90;55.70;;;;;;10363265;28;20050;-81
2022/04/14 10:32:11;;;;;;;11.55;7.00;;;21.90;58.20;;;;;;10366571;28;20018;-80
2022/04/14 10:37:55;;;;;;;12.02;7.68;;;22.00;57.20;;;;;;10361648;28;20022;-81
2022/04/14 10:43:00;;;;;;;13.55;7.15;;;22.10;57.50;;;;;;10308400;28;20041;-81
2022/04/14 10:48:28;;;;;;;9.93;6.70;;;22.30;56.40;;;;;;10348006;28;20038;-80
2022/04/14 10:53:32;;;;;;;14.50;6.70;;;22.60;56.20;;;;;;10344724;28;20328;-80
2022/04/14 10:58:35;;;;;;;10.55;6.47;;;22.60;57.90;;;;;;10346463;28;20132;-80
2022/04/14 11:03:46;;;;;;;9.00;6.10;;;22.70;56.30;;;;;;10366555;28;20157;-81
2022/04/14 11:08:47;;;;;;;10.40;6.18;;;22.70;56.00;;;;;;10350033;28;20393;-81
2022/04/14 11:13:51;;;;;;;12.00;7.07;;;22.70;56.40;;;;;;10341393;28;20604;-80
2022/04/14 11:19:24;;;;;;;12.65;8.40;;;22.70;56.80;;;;;;10351709;28;20038;-80
2022/04/14 11:24:38;;;;;;;12.20;7.55;;;22.80;57.60;;;;;;10359446;28;20131;-80
2022/04/14 11:29:40;;;;;;;14.60;8.05;;;22.80;56.80;;;;;;10369282;28;20058;-80
2022/04/14 11:34:41;;;;;;;14.48;8.10;;;22.90;56.70;;;;;;10361335;28;20018;-81
2022/04/14 11:39:42;;;;;;;8.50;6.03;;;22.80;54.50;;;;;;10339747;28;20587;-80
2022/04/14 11:44:43;;;;;;;9.93;6.10;;;22.80;55.10;;;;;;10364211;28;20018;-79
2022/04/14 11:49:46;;;;;;;10.77;6.55;;;22.80;56.10;;;;;;10370011;28;20567;-80
2022/04/14 11:54:49;;;;;;;11.27;7.07;;;22.70;56.50;;;;;;10365957;28;20034;-80
2022/04/14 11:59:58;;;;;;;8.68;6.57;;;22.80;56.20;;;;;;10363378;28;20026;-79
2022/04/14 12:04:59;;;;;;;12.10;6.75;;;23.00;57.00;;;;;;10370870;28;20026;-80
2022/04/14 12:10:05;;;;;;;8.77;5.32;;;23.10;55.50;;;;;;10371166;28;20050;-80
2022/04/14 12:15:07;;;;;;;10.02;4.85;;;23.20;53.50;;;;;;10375339;23;20116;-80
2022/04/14 12:20:08;;;;;;;13.82;5.75;;;23.40;55.40;;;;;;10331248;28;20435;-80
2022/04/14 12:25:10;;;;;;;8.60;5.45;;;23.60;53.50;;;;;;10319315;28;20030;-80
2022/04/14 12:30:13;;;;;;;8.07;5.30;;;23.50;54.50;;;;;;10336167;28;20032;-80
2022/04/14 12:35:33;;;;;;;8.32;4.63;;;23.70;53.60;;;;;;10328971;28;20048;-80
2022/04/14 12:40:34;;;;;;;8.15;5.28;;;23.70;54.60;;;;;;10358390;28;20029;-80
2022/04/14 12:45:38;;;;;;;7.15;4.95;;;23.80;54.60;;;;;;10366241;28;20761;-80
2022/04/14 12:50:38;;;;;;;10.48;5.25;;;23.90;51.60;;;;;;10364923;28;20026;-79
2022/04/14 12:55:39;;;;;;;8.82;5.30;;;23.80;53.30;;;;;;10389083;28;20030;-80
2022/04/14 13:00:40;;;;;;;7.85;4.72;;;23.80;53.30;;;;;;10377764;28;20079;-79
2022/04/14 13:05:43;;;;;;;7.63;5.03;;;23.80;52.90;;;;;;10368088;28;20018;-79
2022/04/14 13:10:47;;;;;;;11.60;5.00;;;23.80;52.00;;;;;;10362760;28;20034;-80
2022/04/14 13:15:51;;;;;;;7.20;4.85;;;23.80;52.70;;;;;;10365778;28;20057;-79
2022/04/14 13:20:52;;;;;;;8.83;5.50;;;23.90;52.30;;;;;;10350878;28;20026;-78
2022/04/14 13:25:53;;;;;;;10.15;5.43;;;23.70;51.20;;;;;;10350385;28;20077;-80
2022/04/14 13:30:53;;;;;;;6.15;4.72;;;23.60;52.50;;;;;;10368142;28;20109;-79
2022/04/14 13:35:54;;;;;;;7.13;5.38;;;23.60;51.30;;;;;;10342294;28;20044;-79
2022/04/14 13:40:55;;;;;;;8.73;5.22;;;23.50;54.00;;;;;;10359846;28;20666;-79
2022/04/14 13:45:55;;;;;;;9.18;5.85;;;23.40;53.30;;;;;;10353065;28;20030;-79
2022/04/14 13:50:56;;;;;;;8.13;5.30;;;23.40;54.00;;;;;;10353621;28;20034;-79
2022/04/14 13:55:57;;;;;;;7.22;4.65;;;23.40;53.40;;;;;;10342364;28;20180;-78
2022/04/14 14:00:58;;;;;;;6.53;5.35;;;23.30;52.00;;;;;;10343277;28;20032;-79
2022/04/14 14:05:59;;;;;;;8.07;5.05;;;23.20;53.70;;;;;;10360011;28;20030;-80
2022/04/14 14:11:02;;;;;;;6.80;4.18;;;23.10;53.30;;;;;;10349421;28;20073;-80
2022/04/14 14:16:03;;;;;;;15.00;4.90;;;23.00;54.20;;;;;;10363850;28;20057;-79
2022/04/14 14:21:04;;;;;;;6.68;4.28;;;23.00;53.20;;;;;;10347953;28;20027;-80
2022/04/14 14:26:04;;;;;;;6.00;3.72;;;22.80;53.30;;;;;;10344782;28;20100;-79
2022/04/14 14:31:05;;;;;;;5.22;3.58;;;22.60;52.90;;;;;;10358961;28;20784;-80
2022/04/14 14:36:06;;;;;;;8.25;3.65;;;22.50;53.00;;;;;;10354686;28;20034;-81
2022/04/14 14:41:07;;;;;;;7.38;4.70;;;22.40;53.40;;;;;;10361820;28;20033;-80
2022/04/14 14:46:08;;;;;;;14.32;5.07;;;22.30;53.50;;;;;;10365100;28;20116;-80
2022/04/14 14:51:09;;;;;;;7.50;4.43;;;22.10;54.80;;;;;;10359290;28;20038;-79
2022/04/14 14:56:09;;;;;;;10.88;4.97;;;22.10;53.60;;;;;;10366360;28;20049;-80
2022/04/14 15:01:10;;;;;;;6.93;4.43;;;22.00;53.80;;;;;;10370560;28;20037;-80
2022/04/14 15:06:11;;;;;;;9.68;5.28;;;21.90;54.30;;;;;;10372104;28;20033;-80
2022/04/14 15:11:11;;;;;;;12.00;7.45;;;21.80;54.80;;;;;;10357132;28;20517;-81
2022/04/14 15:16:12;;;;;;;10.18;6.20;;;21.80;54.70;;;;;;10366951;28;20057;-81
2022/04/14 15:21:13;;;;;;;11.30;6.30;;;21.70;55.40;;;;;;10372305;28;20018;-79
2022/04/14 15:26:14;;;;;;;13.65;7.53;;;21.50;56.10;;;;;;10365985;28;20034;-83
2022/04/14 15:31:16;;;;;;;29.02;12.35;;;21.50;55.50;;;;;;10367731;28;20486;-81
2022/04/14 15:36:16;;;;;;;16.05;8.07;;;21.30;55.50;;;;;;10366593;28;20038;-80
2022/04/14 15:41:18;;;;;;;17.48;7.40;;;21.30;56.10;;;;;;10365509;28;20022;-81
2022/04/14 15:46:18;;;;;;;14.82;7.95;;;21.20;55.90;;;;;;10369109;28;20040;-82
2022/04/14 15:51:19;;;;;;;18.42;9.35;;;21.20;55.80;;;;;;10371301;28;20030;-81
2022/04/14 15:56:20;;;;;;;22.05;9.45;;;21.00;56.70;;;;;;10371824;28;20041;-81
2022/04/14 16:01:21;;;;;;;33.15;16.58;;;20.80;56.10;;;;;;10371616;28;20493;-80
2022/04/14 16:06:21;;;;;;;15.85;7.65;;;20.70;56.30;;;;;;10353572;28;20038;-81
2022/04/14 16:16:43;;;;;;;21.13;13.75;;;20.60;57.20;;;;;;10368937;28;20618;-82
2022/04/14 16:21:44;;;;;;;25.08;13.30;;;20.50;56.90;;;;;;10365580;28;20048;-80
2022/04/14 16:26:47;;;;;;;18.90;9.57;;;20.40;57.20;;;;;;10369150;28;20110;-80
2022/04/14 16:31:48;;;;;;;14.32;8.27;;;20.20;58.10;;;;;;10369227;28;20030;-81
2022/04/14 16:36:50;;;;;;;21.60;9.82;;;20.10;57.60;;;;;;10376366;28;20104;-79
2022/04/14 16:41:51;;;;;;;17.48;9.75;;;20.00;57.90;;;;;;10332255;28;20038;-80
2022/04/14 16:46:52;;;;;;;21.88;11.10;;;19.80;57.90;;;;;;10329990;28;20535;-80
2022/04/14 16:51:53;;;;;;;17.27;10.43;;;19.70;58.80;;;;;;10348156;28;20062;-80
2022/04/14 16:56:53;;;;;;;17.77;10.43;;;19.50;60.60;;;;;;10355563;28;20137;-80
2022/04/14 17:01:54;;;;;;;16.00;9.50;;;19.10;61.10;;;;;;10329220;28;20042;-80
2022/04/14 17:06:55;;;;;;;23.92;14.43;;;18.70;60.80;;;;;;10336935;28;20076;-81
2022/04/14 17:11:58;;;;;;;16.63;9.82;;;18.40;62.00;;;;;;10354011;28;20026;-80
2022/04/14 17:16:58;;;;;;;13.43;8.55;;;17.90;63.20;;;;;;10350542;28;20050;-80
2022/04/14 17:27:18;;;;;;;17.83;8.85;;;17.00;64.60;;;;;;10344122;28;20074;-81
2022/04/14 17:32:19;;;;;;;19.50;12.05;;;16.50;66.30;;;;;;10341959;28;20046;-80
2022/04/14 17:37:20;;;;;;;23.23;14.82;;;16.30;66.00;;;;;;10336869;28;20483;-79
2022/04/14 17:42:21;;;;;;;42.58;26.20;;;16.10;66.10;;;;;;10352418;28;20038;-80
2022/04/14 17:47:21;;;;;;;43.17;29.67;;;15.90;67.10;;;;;;10352683;28;20029;-78
2022/04/14 17:52:22;;;;;;;43.97;26.40;;;15.60;66.70;;;;;;10366368;28;20515;-79
2022/04/14 17:57:23;;;;;;;39.92;22.88;;;15.50;67.10;;;;;;10347474;28;20042;-79
2022/04/14 18:02:23;;;;;;;34.70;20.33;;;15.20;67.60;;;;;;10361762;28;20026;-79
2022/04/14 18:07:24;;;;;;;29.63;18.42;;;15.10;67.90;;;;;;10361120;28;20117;-78
2022/04/14 18:12:26;;;;;;;30.00;16.98;;;15.00;68.20;;;;;;10341032;28;20030;-78
2022/04/14 18:17:27;;;;;;;31.23;18.42;;;14.80;68.10;;;;;;10360249;28;20054;-78
2022/04/14 18:22:28;;;;;;;47.85;25.67;;;14.60;69.30;;;;;;10356190;28;20034;-79
2022/04/14 18:27:31;;;;;;;113.55;56.67;;;14.40;69.20;;;;;;10363486;28;20033;-78
2022/04/14 18:32:33;;;;;;;90.97;44.92;;;14.30;69.60;;;;;;10355572;28;20022;-79
2022/04/14 18:37:33;;;;;;;64.10;35.40;;;14.30;69.50;;;;;;10363640;28;20095;-78
2022/04/14 18:42:34;;;;;;;50.40;27.02;;;14.20;69.50;;;;;;10369109;28;20034;-80
2022/04/14 18:47:36;;;;;;;50.85;26.70;;;14.10;69.80;;;;;;10363254;28;20018;-79
2022/04/14 18:52:38;;;;;;;53.00;27.02;;;14.00;70.30;;;;;;10363288;28;20110;-79
2022/04/14 18:57:39;;;;;;;39.55;21.10;;;13.90;70.70;;;;;;10373969;28;20061;-79
2022/04/14 19:02:40;;;;;;;34.88;18.33;;;13.80;71.70;;;;;;10359119;28;20505;-79
2022/04/14 19:07:42;;;;;;;38.47;19.52;;;13.70;72.20;;;;;;10374470;28;20022;-79
2022/04/14 19:12:43;;;;;;;35.33;20.05;;;13.60;72.10;;;;;;10353793;28;20022;-79
2022/04/14 19:17:44;;;;;;;39.95;22.65;;;13.50;72.90;;;;;;10356163;28;20062;-79
2022/04/14 19:22:44;;;;;;;42.05;23.48;;;13.30;73.00;;;;;;10356844;28;20022;-79
2022/04/14 19:27:45;;;;;;;50.75;29.80;;;13.20;73.10;;;;;;10363555;28;20026;-79
2022/04/14 19:32:46;;;;;;;68.22;34.72;;;13.10;74.30;;;;;;10362067;28;20022;-79
2022/04/14 19:37:47;;;;;;;75.30;37.60;;;13.00;73.80;;;;;;10353274;28;20042;-79
2022/04/14 19:42:47;;;;;;;89.18;40.60;;;13.10;74.00;;;;;;10368395;28;20088;-79
2022/04/14 19:47:48;;;;;;;95.93;48.30;;;13.10;73.40;;;;;;10371472;28;20040;-79
2022/04/14 19:52:49;;;;;;;95.68;50.75;;;13.10;73.70;;;;;;10368153;28;20022;-79
2022/04/14 19:57:50;;;;;;;111.78;57.63;;;13.10;74.00;;;;;;10366496;28;20053;-78
2022/04/14 20:02:51;;;;;;;108.40;51.60;;;13.00;74.40;;;;;;10375433;28;20033;-78
2022/04/14 20:07:51;;;;;;;77.50;39.63;;;13.00;75.10;;;;;;10356061;28;20036;-82
2022/04/14 20:12:52;;;;;;;59.70;32.72;;;13.00;75.90;;;;;;10347933;28;20026;-79
2022/04/14 20:17:53;;;;;;;69.05;34.63;;;13.00;76.30;;;;;;10368730;28;20057;-79
2022/04/14 20:22:53;;;;;;;68.55;32.17;;;13.00;76.90;;;;;;10365750;28;20355;-79
2022/04/14 20:27:54;;;;;;;57.95;31.67;;;13.00;77.20;;;;;;10366830;28;20038;-79
2022/04/14 20:32:56;;;;;;;67.18;31.48;;;13.00;76.80;;;;;;10369068;28;20030;-79
2022/04/14 20:37:57;;;;;;;72.40;37.83;;;13.20;76.50;;;;;;10354297;28;20042;-79
2022/04/14 20:42:58;;;;;;;67.20;34.28;;;13.50;76.00;;;;;;10362625;28;20109;-81
2022/04/14 20:47:58;;;;;;;52.13;28.65;;;13.60;75.70;;;;;;10363941;28;20124;-80
2022/04/14 20:52:59;;;;;;;50.20;26.67;;;13.60;75.70;;;;;;10355020;28;20057;-78
2022/04/14 20:58:00;;;;;;;42.67;23.88;;;13.70;76.00;;;;;;10356707;28;20033;-79
2022/04/14 21:03:00;;;;;;;37.42;21.67;;;13.70;75.90;;;;;;10368584;28;20026;-79
2022/04/14 21:08:01;;;;;;;35.03;18.90;;;13.80;75.90;;;;;;10369378;28;20029;-79
2022/04/14 21:13:03;;;;;;;31.10;17.42;;;13.90;76.00;;;;;;10366473;28;20033;-79
2022/04/14 21:18:03;;;;;;;35.13;18.70;;;13.90;75.90;;;;;;10367893;28;20057;-79
2022/04/14 21:23:04;;;;;;;32.53;17.75;;;13.90;75.70;;;;;;10367820;28;20034;-79
2022/04/14 21:28:05;;;;;;;30.27;17.00;;;13.90;75.90;;;;;;10368750;28;20034;-79
2022/04/14 21:33:08;;;;;;;30.33;17.55;;;14.00;75.80;;;;;;10349159;28;20436;-79
2022/04/14 21:38:09;;;;;;;38.88;19.77;;;13.90;75.50;;;;;;10342341;28;20045;-79
2022/04/14 21:43:10;;;;;;;33.17;18.85;;;14.00;75.20;;;;;;10349607;28;20760;-80
2022/04/14 21:48:15;;;;;;;35.08;19.70;;;14.00;75.20;;;;;;10351593;28;20060;-80
2022/04/14 21:53:16;;;;;;;30.77;16.80;;;13.90;75.00;;;;;;10342313;28;20578;-80
2022/04/14 21:58:17;;;;;;;30.52;18.17;;;13.90;75.20;;;;;;10338063;28;20125;-80
2022/04/14 22:03:18;;;;;;;35.70;19.20;;;13.80;75.30;;;;;;10328997;28;20471;-79
2022/04/14 22:08:18;;;;;;;29.80;16.05;;;13.80;74.90;;;;;;10336295;28;20057;-79
2022/04/14 22:13:19;;;;;;;30.02;16.02;;;13.70;74.50;;;;;;10333099;28;20121;-79
2022/04/14 22:18:20;;;;;;;26.27;14.35;;;13.70;74.40;;;;;;10335573;28;20058;-80
2022/04/14 22:23:20;;;;;;;23.90;14.15;;;13.70;74.50;;;;;;10338681;28;20038;-80
2022/04/14 22:28:21;;;;;;;25.98;14.23;;;13.80;74.30;;;;;;10333428;28;20488;-80
2022/04/14 22:33:22;;;;;;;23.08;13.32;;;13.80;73.60;;;;;;10334905;28;20038;-80
2022/04/14 22:38:23;;;;;;;24.55;13.63;;;13.90;73.80;;;;;;10355822;28;20054;-80
2022/04/14 22:43:23;;;;;;;24.70;12.75;;;13.80;73.40;;;;;;10353832;28;20379;-80
2022/04/14 22:48:24;;;;;;;23.73;12.73;;;13.80;74.10;;;;;;10353775;28;20048;-80
2022/04/14 22:53:25;;;;;;;25.63;13.52;;;13.70;74.10;;;;;;10366547;28;20405;-80
2022/04/14 22:58:25;;;;;;;25.58;14.18;;;13.60;74.70;;;;;;10334509;28;20449;-78
2022/04/14 23:03:26;;;;;;;27.63;14.63;;;13.60;74.40;;;;;;10353631;28;20088;-79
2022/04/14 23:08:27;;;;;;;24.52;13.10;;;13.50;74.50;;;;;;10366319;28;20136;-80
2022/04/14 23:13:27;;;;;;;28.88;15.20;;;13.40;75.00;;;;;;10366295;28;20037;-80
2022/04/14 23:18:28;;;;;;;25.00;13.30;;;13.30;75.10;;;;;;10342228;28;20054;-80
2022/04/14 23:23:29;;;;;;;30.17;13.30;;;13.30;75.90;;;;;;10340322;28;20433;-80
2022/04/14 23:28:30;;;;;;;30.50;14.10;;;13.30;75.40;;;;;;10372925;28;20034;-80
2022/04/14 23:33:31;;;;;;;25.40;13.10;;;13.30;76.20;;;;;;10368516;28;20466;-79
2022/04/14 23:38:31;;;;;;;28.70;13.73;;;13.30;76.40;;;;;;10362196;28;20042;-79
2022/04/14 23:43:32;;;;;;;26.70;14.77;;;13.20;76.30;;;;;;10334968;28;20042;-79
2022/04/14 23:48:33;;;;;;;31.08;16.20;;;13.20;76.70;;;;;;10360184;28;20034;-80
2022/04/14 23:53:33;;;;;;;28.33;16.05;;;13.20;77.00;;;;;;10372162;28;20033;-80
2022/04/14 23:58:34;;;;;;;46.90;22.25;;;13.10;77.20;;;;;;10364196;28;20042;-80
